createdAt,value
2019-03-28T00:01:43.639Z,99.90
2019-03-28T00:04:12.346Z,99.90
2019-03-28T00:06:42.615Z,99.90
2019-03-28T00:09:11.358Z,99.90
2019-03-28T00:11:39.984Z,99.90
2019-03-28T00:14:08.897Z,99.90
2019-03-28T00:16:37.562Z,99.90
2019-03-28T00:19:06.121Z,99.90
2019-03-28T00:21:34.675Z,99.90
2019-03-28T00:24:07.973Z,99.90
2019-03-28T00:26:42.995Z,99.90
2019-03-28T00:29:11.676Z,99.90
2019-03-28T00:31:40.574Z,99.90
2019-03-28T00:34:09.221Z,99.90
2019-03-28T00:36:38.269Z,99.90
2019-03-28T00:39:07.273Z,99.90
2019-03-28T00:41:35.802Z,99.90
2019-03-28T00:44:04.614Z,99.90
2019-03-28T00:46:33.165Z,99.90
2019-03-28T00:49:01.860Z,99.90
2019-03-28T00:51:30.741Z,99.90
2019-03-28T00:53:59.288Z,99.90
2019-03-28T00:56:27.920Z,99.90
2019-03-28T00:58:57.034Z,99.90
2019-03-28T01:01:25.677Z,99.90
2019-03-28T01:03:54.217Z,99.90
2019-03-28T01:06:23.202Z,99.90
2019-03-28T01:08:51.829Z,99.90
2019-03-28T01:11:20.388Z,99.90
2019-03-28T01:13:49.154Z,99.90
2019-03-28T01:16:17.931Z,99.90
2019-03-28T01:18:46.489Z,99.90
2019-03-28T01:21:15.135Z,99.90
2019-03-28T01:23:44.336Z,99.90
2019-03-28T01:26:12.880Z,99.90
2019-03-28T01:28:41.502Z,99.90
2019-03-28T01:31:10.333Z,99.90
2019-03-28T01:33:43.348Z,99.90
2019-03-28T01:36:12.153Z,99.90
2019-03-28T01:38:40.793Z,99.90
2019-03-28T01:41:09.536Z,99.90
2019-03-28T01:43:38.883Z,99.90
2019-03-28T01:46:07.694Z,99.90
2019-03-28T01:48:36.281Z,99.90
2019-03-28T01:51:05.261Z,99.90
2019-03-28T01:53:34.759Z,99.90
2019-03-28T01:56:03.313Z,99.90
2019-03-28T01:58:31.977Z,99.90
2019-03-28T02:01:02.865Z,99.90
2019-03-28T02:03:30.939Z,99.90
2019-03-28T02:05:59.707Z,99.90
2019-03-28T02:08:28.420Z,99.90
2019-03-28T02:10:57.281Z,99.90
2019-03-28T02:13:26.287Z,99.90
2019-03-28T02:15:55.392Z,99.90
2019-03-28T02:18:24.209Z,99.90
2019-03-28T02:20:53.607Z,99.90
2019-03-28T02:23:22.310Z,99.90
2019-03-28T02:25:51.023Z,99.90
2019-03-28T02:28:19.773Z,99.90
2019-03-28T02:30:48.491Z,99.90
2019-03-28T02:33:17.221Z,99.90
2019-03-28T02:35:46.350Z,99.90
2019-03-28T02:38:15.138Z,99.90
2019-03-28T02:40:43.858Z,99.90
2019-03-28T02:43:12.687Z,99.90
2019-03-28T02:45:41.508Z,99.90
2019-03-28T02:48:10.610Z,99.90
2019-03-28T02:50:39.374Z,99.90
2019-03-28T02:53:08.205Z,99.90
2019-03-28T02:55:37.015Z,99.90
2019-03-28T02:58:05.853Z,99.90
2019-03-28T03:00:34.669Z,99.90
2019-03-28T03:03:03.394Z,99.90
2019-03-28T03:05:32.353Z,99.90
2019-03-28T03:08:01.065Z,99.90
2019-03-28T03:10:29.781Z,99.90
2019-03-28T03:12:58.650Z,99.90
2019-03-28T03:15:27.370Z,99.90
2019-03-28T03:17:56.086Z,99.90
2019-03-28T03:20:24.903Z,99.90
2019-03-28T03:22:54.527Z,99.90
2019-03-28T03:25:23.505Z,99.90
2019-03-28T03:27:58.406Z,99.90
2019-03-28T03:30:22.736Z,99.90
2019-03-28T03:32:51.514Z,99.90
2019-03-28T03:35:20.346Z,99.90
2019-03-28T03:37:49.062Z,99.90
2019-03-28T03:40:18.067Z,99.90
2019-03-28T03:42:46.917Z,99.90
2019-03-28T03:45:15.633Z,99.90
2019-03-28T03:47:44.331Z,99.90
2019-03-28T03:50:16.035Z,99.90
2019-03-28T03:52:44.741Z,99.90
2019-03-28T03:55:13.456Z,99.90
2019-03-28T03:57:42.214Z,99.90
2019-03-28T04:00:11.399Z,99.90
2019-03-28T04:02:40.882Z,99.90
2019-03-28T04:05:09.729Z,99.90
2019-03-28T04:07:38.373Z,99.90
2019-03-28T04:10:07.281Z,99.90
2019-03-28T04:12:35.977Z,99.90
2019-03-28T04:15:05.274Z,99.90
2019-03-28T04:17:33.989Z,99.90
2019-03-28T04:20:02.741Z,99.90
2019-03-28T04:22:31.383Z,99.90
2019-03-28T04:25:00.011Z,99.90
2019-03-28T04:27:28.836Z,99.90
2019-03-28T04:29:57.464Z,99.90
2019-03-28T04:32:26.168Z,99.90
2019-03-28T04:34:54.855Z,99.90
2019-03-28T04:37:23.563Z,99.90
2019-03-28T04:39:52.279Z,99.90
2019-03-28T04:42:21.348Z,99.90
2019-03-28T04:44:50.058Z,99.90
2019-03-28T04:47:18.688Z,99.90
2019-03-28T04:49:47.431Z,99.90
2019-03-28T04:52:16.071Z,99.90
2019-03-28T04:54:44.787Z,99.90
2019-03-28T04:57:13.953Z,99.90
2019-03-28T04:59:42.582Z,99.90
2019-03-28T05:02:11.284Z,99.90
2019-03-28T05:04:40.546Z,99.90
2019-03-28T05:07:09.485Z,99.90
2019-03-28T05:09:38.093Z,99.90
2019-03-28T05:12:06.769Z,99.90
2019-03-28T05:14:35.336Z,99.90
2019-03-28T05:17:04.036Z,99.90
2019-03-28T05:19:32.650Z,99.90
2019-03-28T05:22:01.288Z,99.90
2019-03-28T05:24:30.431Z,99.90
2019-03-28T05:26:59.214Z,99.90
2019-03-28T05:29:27.787Z,99.90
2019-03-28T05:31:56.491Z,99.90
2019-03-28T05:34:25.244Z,99.90
2019-03-28T05:36:53.877Z,99.90
2019-03-28T05:39:22.586Z,99.90
2019-03-28T05:41:51.175Z,99.90
2019-03-28T05:44:19.820Z,99.90
2019-03-28T05:46:48.521Z,99.90
2019-03-28T05:49:17.282Z,99.90
2019-03-28T05:51:45.923Z,99.90
2019-03-28T05:54:14.560Z,99.90
2019-03-28T05:56:43.227Z,99.90
2019-03-28T05:59:11.900Z,99.90
2019-03-28T06:01:40.610Z,99.90
2019-03-28T06:04:09.396Z,99.90
2019-03-28T06:06:38.107Z,99.90
2019-03-28T06:09:07.618Z,99.90
2019-03-28T06:11:36.377Z,99.90
2019-03-28T06:14:05.098Z,99.90
2019-03-28T06:16:33.728Z,99.90
2019-03-28T06:19:02.878Z,99.90
2019-03-28T06:21:31.506Z,99.90
2019-03-28T06:24:00.221Z,99.90
2019-03-28T06:26:28.956Z,99.90
2019-03-28T06:28:57.673Z,99.90
2019-03-28T06:31:26.385Z,99.90
2019-03-28T06:33:55.068Z,99.90
2019-03-28T06:36:26.547Z,99.90
2019-03-28T06:38:53.911Z,99.90
2019-03-28T06:41:23.256Z,99.90
2019-03-28T06:43:51.864Z,99.90
2019-03-28T06:46:20.574Z,99.90
2019-03-28T06:48:49.611Z,99.90
2019-03-28T06:51:18.260Z,99.90
2019-03-28T06:53:46.910Z,99.90
2019-03-28T06:56:15.575Z,99.90
2019-03-28T06:58:44.149Z,99.90
2019-03-28T07:01:12.791Z,99.90
2019-03-28T07:03:41.715Z,99.90
2019-03-28T07:06:10.451Z,99.90
2019-03-28T07:08:39.091Z,99.90
2019-03-28T07:11:08.127Z,99.90
2019-03-28T07:13:36.757Z,99.90
2019-03-28T07:16:05.400Z,99.90
2019-03-28T07:18:34.084Z,99.90
2019-03-28T07:21:02.859Z,99.90
2019-03-28T07:23:31.419Z,99.90
2019-03-28T07:26:00.617Z,99.90
2019-03-28T07:28:29.252Z,99.90
2019-03-28T07:30:57.960Z,99.90
2019-03-28T07:33:27.755Z,99.90
2019-03-28T07:35:56.426Z,99.90
2019-03-28T07:38:25.200Z,99.90
2019-03-28T07:40:53.876Z,99.90
2019-03-28T07:43:25.094Z,99.90
2019-03-28T07:45:53.367Z,99.90
2019-03-28T07:48:22.538Z,99.90
2019-03-28T07:50:51.182Z,98.80
2019-03-28T07:53:20.128Z,98.20
2019-03-28T07:55:50.013Z,95.20
2019-03-28T07:58:18.722Z,94.00
2019-03-28T08:00:47.438Z,90.70
2019-03-28T08:03:16.115Z,90.10
2019-03-28T08:05:45.047Z,84.80
2019-03-28T08:08:14.477Z,79.60
2019-03-28T08:10:43.764Z,78.30
2019-03-28T08:13:12.483Z,77.40
2019-03-28T08:15:41.203Z,70.90
2019-03-28T08:18:11.908Z,69.10
2019-03-28T08:20:40.649Z,67.60
2019-03-28T08:23:09.348Z,61.60
2019-03-28T08:25:38.025Z,62.70
2019-03-28T08:28:06.742Z,62.70
2019-03-28T08:30:37.526Z,60.40
2019-03-28T08:33:07.551Z,58.70
2019-03-28T08:35:39.256Z,57.90
2019-03-28T08:38:09.943Z,56.80
2019-03-28T08:40:43.149Z,57.10
2019-03-28T08:43:12.051Z,56.40
2019-03-28T08:45:40.782Z,56.60
2019-03-28T08:48:09.541Z,56.20
2019-03-28T08:50:38.359Z,55.80
2019-03-28T08:53:07.072Z,53.90
2019-03-28T08:55:35.813Z,53.70
2019-03-28T08:58:04.529Z,52.70
2019-03-28T09:00:50.333Z,53.70
2019-03-28T09:03:03.917Z,51.40
2019-03-28T09:05:32.977Z,52.80
2019-03-28T09:08:01.516Z,51.80
2019-03-28T09:10:30.265Z,52.40
2019-03-28T09:12:58.901Z,52.20
2019-03-28T09:15:27.669Z,52.80
2019-03-28T09:17:56.282Z,52.60
2019-03-28T09:20:24.996Z,50.30
2019-03-28T09:22:53.639Z,47.40
2019-03-28T09:25:22.401Z,47.70
2019-03-28T09:27:51.734Z,46.40
2019-03-28T09:30:46.862Z,44.20
2019-03-28T09:33:03.239Z,44.90
2019-03-28T09:35:32.015Z,44.00
2019-03-28T09:38:00.805Z,42.60
2019-03-28T09:40:29.439Z,40.50
2019-03-28T09:42:58.228Z,43.70
2019-03-28T09:45:27.412Z,44.10
2019-03-28T09:47:56.124Z,45.90
2019-03-28T09:50:24.767Z,47.60
2019-03-28T09:52:53.517Z,50.60
2019-03-28T09:55:22.088Z,51.30
2019-03-28T09:57:50.785Z,50.40
2019-03-28T10:00:20.011Z,50.00
2019-03-28T10:02:48.651Z,49.10
2019-03-28T10:05:17.361Z,48.20
2019-03-28T10:07:46.125Z,47.50
2019-03-28T10:10:14.913Z,46.00
2019-03-28T10:12:44.197Z,46.20
2019-03-28T10:15:13.471Z,46.60
2019-03-28T10:17:42.556Z,44.80
2019-03-28T10:20:11.692Z,45.00
2019-03-28T10:22:40.878Z,44.40
2019-03-28T10:25:12.611Z,44.90
2019-03-28T10:27:40.944Z,46.20
2019-03-28T10:30:11.156Z,47.70
2019-03-28T10:32:39.865Z,48.40
2019-03-28T10:35:08.582Z,49.20
2019-03-28T10:37:37.329Z,45.30
2019-03-28T10:40:07.705Z,43.80
2019-03-28T10:42:36.339Z,42.70
2019-03-28T10:45:07.051Z,43.00
2019-03-28T10:47:36.352Z,44.00
2019-03-28T10:50:06.764Z,43.50
2019-03-28T10:52:35.519Z,42.30
2019-03-28T10:55:04.830Z,40.70
2019-03-28T10:57:33.531Z,42.10
2019-03-28T11:00:02.284Z,42.80
2019-03-28T11:02:30.924Z,46.20
2019-03-28T11:04:59.567Z,48.10
2019-03-28T11:07:28.247Z,52.50
2019-03-28T11:09:56.809Z,52.60
2019-03-28T11:12:25.514Z,53.20
2019-03-28T11:14:54.203Z,54.10
2019-03-28T11:17:22.846Z,53.00
2019-03-28T11:19:51.559Z,52.10
2019-03-28T11:22:20.300Z,51.60
2019-03-28T11:24:49.004Z,47.20
2019-03-28T11:27:17.649Z,47.30
2019-03-28T11:29:46.249Z,50.80
2019-03-28T11:32:14.968Z,51.90
2019-03-28T11:34:43.608Z,50.80
2019-03-28T11:37:25.442Z,50.20
2019-03-28T11:39:43.692Z,49.10
2019-03-28T11:42:12.403Z,49.20
2019-03-28T11:44:41.353Z,45.90
2019-03-28T11:47:10.204Z,44.70
2019-03-28T11:49:38.779Z,43.90
2019-03-28T11:52:07.846Z,43.90
2019-03-28T11:54:36.474Z,41.00
2019-03-28T11:57:05.119Z,42.20
2019-03-28T11:59:33.807Z,46.00
2019-03-28T12:02:18.686Z,47.20
2019-03-28T12:04:32.792Z,45.20
2019-03-28T12:07:01.645Z,43.70
2019-03-28T12:09:30.442Z,40.40
2019-03-28T12:11:59.163Z,39.40
2019-03-28T12:14:27.844Z,40.50
2019-03-28T12:16:56.501Z,42.50
2019-03-28T12:19:25.260Z,43.10
2019-03-28T12:21:54.003Z,41.30
2019-03-28T12:24:22.653Z,39.60
2019-03-28T12:26:51.292Z,38.60
2019-03-28T12:29:20.082Z,39.30
2019-03-28T12:31:48.698Z,41.20
2019-03-28T12:34:17.403Z,42.00
2019-03-28T12:36:46.076Z,41.70
2019-03-28T12:39:15.728Z,42.30
2019-03-28T12:41:44.597Z,46.10
2019-03-28T12:44:13.529Z,48.90
2019-03-28T12:46:42.242Z,51.30
2019-03-28T12:49:10.864Z,52.80
2019-03-28T12:51:39.621Z,52.50
2019-03-28T12:54:08.259Z,51.90
2019-03-28T12:56:36.967Z,49.40
2019-03-28T12:59:05.712Z,45.30
2019-03-28T13:01:34.352Z,42.10
2019-03-28T13:04:03.002Z,43.40
2019-03-28T13:06:31.761Z,43.10
2019-03-28T13:09:00.462Z,46.50
2019-03-28T13:11:29.179Z,48.90
2019-03-28T13:13:57.776Z,49.70
2019-03-28T13:16:26.478Z,48.50
2019-03-28T13:18:55.116Z,43.40
2019-03-28T13:21:23.880Z,41.80
2019-03-28T13:23:52.520Z,45.70
2019-03-28T13:26:21.183Z,48.90
2019-03-28T13:28:49.786Z,52.20
2019-03-28T13:31:18.355Z,53.90
2019-03-28T13:33:46.989Z,56.90
2019-03-28T13:36:15.730Z,59.20
2019-03-28T13:38:44.436Z,59.30
2019-03-28T13:41:13.076Z,60.50
2019-03-28T13:43:41.835Z,59.70
2019-03-28T13:46:10.556Z,58.50
2019-03-28T13:48:39.203Z,57.80
2019-03-28T13:51:07.957Z,57.70
2019-03-28T13:53:39.846Z,57.10
2019-03-28T13:56:06.953Z,57.80
2019-03-28T13:58:35.711Z,57.20
2019-03-28T14:01:04.469Z,56.30
2019-03-28T14:03:33.190Z,54.60
2019-03-28T14:06:02.164Z,51.00
2019-03-28T14:08:30.868Z,49.20
2019-03-28T14:10:59.516Z,47.80
2019-03-28T14:13:28.447Z,50.70
2019-03-28T14:15:58.136Z,50.80
2019-03-28T14:18:27.004Z,52.60
2019-03-28T14:20:55.749Z,55.50
2019-03-28T14:23:24.403Z,57.10
2019-03-28T14:25:52.960Z,58.60
2019-03-28T14:28:21.652Z,61.60
2019-03-28T14:30:50.359Z,63.80
2019-03-28T14:33:19.103Z,63.60
2019-03-28T14:35:47.835Z,64.90
2019-03-28T14:38:16.551Z,66.40
2019-03-28T14:40:45.285Z,65.90
2019-03-28T14:43:14.031Z,66.80
2019-03-28T14:45:42.745Z,69.00
2019-03-28T14:48:11.379Z,67.10
2019-03-28T14:50:40.960Z,69.20
2019-03-28T14:53:09.655Z,69.40
2019-03-28T14:55:38.357Z,72.30
2019-03-28T14:58:07.203Z,73.10
2019-03-28T15:00:41.715Z,71.30
2019-03-28T15:03:24.500Z,72.90
2019-03-28T15:05:40.823Z,72.70
2019-03-28T15:08:09.526Z,72.50
2019-03-28T15:10:38.245Z,72.00
2019-03-28T15:13:06.986Z,70.60
2019-03-28T15:15:35.696Z,71.20
2019-03-28T15:18:04.417Z,71.80
2019-03-28T15:20:33.168Z,74.30
2019-03-28T15:23:01.879Z,73.10
2019-03-28T15:25:30.592Z,73.40
2019-03-28T15:27:59.411Z,73.60
2019-03-28T15:30:28.112Z,72.10
2019-03-28T15:32:56.823Z,72.30
2019-03-28T15:35:25.563Z,73.30
2019-03-28T15:37:54.267Z,73.40
2019-03-28T15:40:22.975Z,71.70
2019-03-28T15:42:51.639Z,72.60
2019-03-28T15:45:20.344Z,72.30
2019-03-28T15:47:51.912Z,72.30
2019-03-28T15:50:19.990Z,74.10
2019-03-28T15:52:48.676Z,73.60
2019-03-28T15:55:17.387Z,72.10
2019-03-28T15:57:46.351Z,72.20
2019-03-28T16:00:15.771Z,71.90
2019-03-28T16:02:44.395Z,72.30
2019-03-28T16:05:13.164Z,71.50
2019-03-28T16:07:41.809Z,70.60
2019-03-28T16:10:14.234Z,70.50
2019-03-28T16:12:41.391Z,72.90
2019-03-28T16:15:11.699Z,74.50
2019-03-28T16:17:40.412Z,76.60
2019-03-28T16:20:09.971Z,76.30
2019-03-28T16:22:38.612Z,77.00
2019-03-28T16:25:07.924Z,77.50
2019-03-28T16:27:36.671Z,78.50
2019-03-28T16:30:10.995Z,79.90
2019-03-28T16:32:40.678Z,80.90
2019-03-28T16:35:09.460Z,80.80
2019-03-28T16:37:38.177Z,82.20
2019-03-28T16:40:07.184Z,81.60
2019-03-28T16:42:36.158Z,84.00
2019-03-28T16:45:07.071Z,86.30
2019-03-28T16:47:35.706Z,86.00
2019-03-28T16:50:05.045Z,88.00
2019-03-28T16:52:33.756Z,87.90
2019-03-28T16:55:02.388Z,90.10
2019-03-28T16:57:31.131Z,90.70
2019-03-28T17:00:00.375Z,91.40
2019-03-28T17:02:29.155Z,91.00
2019-03-28T17:04:57.970Z,92.10
2019-03-28T17:07:27.151Z,91.80
2019-03-28T17:09:56.067Z,92.20
2019-03-28T17:12:24.811Z,92.50
2019-03-28T17:14:53.444Z,92.20
2019-03-28T17:17:22.156Z,92.10
2019-03-28T17:19:50.892Z,92.40
2019-03-28T17:22:19.533Z,91.90
2019-03-28T17:24:48.363Z,91.90
2019-03-28T17:27:16.990Z,92.10
2019-03-28T17:29:45.704Z,92.40
2019-03-28T17:32:14.457Z,92.60
2019-03-28T17:34:45.852Z,92.10
2019-03-28T17:37:13.510Z,92.50
2019-03-28T17:39:42.164Z,92.70
2019-03-28T17:42:10.804Z,92.70
2019-03-28T17:44:39.403Z,92.70
2019-03-28T17:47:07.977Z,93.30
2019-03-28T17:49:36.756Z,93.40
2019-03-28T17:52:05.551Z,93.50
2019-03-28T17:54:34.265Z,93.60
2019-03-28T17:57:03.017Z,93.30
2019-03-28T17:59:31.652Z,93.70
2019-03-28T18:02:00.401Z,93.70
2019-03-28T18:04:29.040Z,94.20
2019-03-28T18:06:57.787Z,94.40
2019-03-28T18:09:26.492Z,94.90
2019-03-28T18:11:55.204Z,95.10
2019-03-28T18:14:23.943Z,95.00
2019-03-28T18:16:52.564Z,94.90
2019-03-28T18:19:21.209Z,94.80
2019-03-28T18:22:02.894Z,95.00
2019-03-28T18:24:20.231Z,95.50
2019-03-28T18:26:49.110Z,95.50
2019-03-28T18:29:19.242Z,95.70
2019-03-28T18:31:50.832Z,96.40
2019-03-28T18:34:18.402Z,96.10
2019-03-28T18:36:47.394Z,96.20
2019-03-28T18:39:16.389Z,96.10
2019-03-28T18:41:45.095Z,96.20
2019-03-28T18:44:13.805Z,96.20
2019-03-28T18:46:42.545Z,96.60
2019-03-28T18:49:11.251Z,96.90
2019-03-28T18:51:40.039Z,97.00
2019-03-28T18:54:08.748Z,96.90
2019-03-28T18:56:37.451Z,97.20
2019-03-28T18:59:06.243Z,97.40
2019-03-28T19:01:34.876Z,97.50
2019-03-28T19:04:03.631Z,97.60
2019-03-28T19:06:32.339Z,97.70
2019-03-28T19:09:01.052Z,97.80
2019-03-28T19:11:29.738Z,97.90
2019-03-28T19:13:58.295Z,97.90
2019-03-28T19:16:26.987Z,98.50
2019-03-28T19:18:55.627Z,99.10
2019-03-28T19:21:24.275Z,99.60
2019-03-28T19:23:52.947Z,99.90
2019-03-28T19:26:21.645Z,99.90
2019-03-28T19:28:50.388Z,99.90
2019-03-28T19:31:19.099Z,99.90
2019-03-28T19:33:47.800Z,99.90
2019-03-28T19:36:17.045Z,99.90
2019-03-28T19:38:45.944Z,99.90
2019-03-28T19:41:14.784Z,99.90
2019-03-28T19:43:43.691Z,99.90
2019-03-28T19:46:12.390Z,99.90
2019-03-28T19:48:41.060Z,99.90
2019-03-28T19:51:09.774Z,99.90
2019-03-28T19:53:38.510Z,99.90
2019-03-28T19:56:07.227Z,99.90
2019-03-28T19:58:35.953Z,99.90
2019-03-28T20:01:05.092Z,99.90
2019-03-28T20:03:33.797Z,99.90
2019-03-28T20:06:02.532Z,99.90
2019-03-28T20:08:31.162Z,99.90
2019-03-28T20:10:59.793Z,99.90
2019-03-28T20:13:30.907Z,99.90
2019-03-28T20:15:59.750Z,99.90
2019-03-28T20:18:28.507Z,99.90
2019-03-28T20:20:57.216Z,99.90
2019-03-28T20:23:25.848Z,99.90
2019-03-28T20:25:54.583Z,99.90
2019-03-28T20:28:26.474Z,99.90
2019-03-28T20:30:53.918Z,99.90
2019-03-28T20:33:24.982Z,99.90
2019-03-28T20:36:11.652Z,99.90
2019-03-28T20:38:23.289Z,99.90
2019-03-28T20:40:51.999Z,99.90
2019-03-28T20:43:20.761Z,99.90
2019-03-28T20:45:49.464Z,99.90
2019-03-28T20:48:18.164Z,99.90
2019-03-28T20:50:46.907Z,99.90
2019-03-28T20:53:15.616Z,99.90
2019-03-28T20:55:44.374Z,99.90
2019-03-28T20:58:13.441Z,99.90
2019-03-28T21:00:44.623Z,99.90
2019-03-28T21:03:14.921Z,99.90
2019-03-28T21:05:44.890Z,99.90
2019-03-28T21:08:14.336Z,99.90
2019-03-28T21:10:43.085Z,99.90
2019-03-28T21:13:11.787Z,99.90
2019-03-28T21:15:40.528Z,99.90
2019-03-28T21:18:09.236Z,99.90
2019-03-28T21:20:37.994Z,99.90
2019-03-28T21:23:06.698Z,99.90
2019-03-28T21:25:35.396Z,99.90
2019-03-28T21:28:04.144Z,99.90
2019-03-28T21:30:46.351Z,99.90
2019-03-28T21:33:03.659Z,99.90
2019-03-28T21:35:32.299Z,99.90
2019-03-28T21:38:00.951Z,99.90
2019-03-28T21:40:29.684Z,99.90
2019-03-28T21:42:58.383Z,99.90
2019-03-28T21:45:27.047Z,99.90
2019-03-28T21:47:55.755Z,99.90
2019-03-28T21:50:24.462Z,99.90
2019-03-28T21:52:53.133Z,99.90
2019-03-28T21:55:21.834Z,99.90
2019-03-28T21:57:50.615Z,99.90
2019-03-28T22:00:19.417Z,99.90
2019-03-28T22:02:48.147Z,99.90
2019-03-28T22:05:16.829Z,99.90
2019-03-28T22:07:45.529Z,99.90
2019-03-28T22:10:14.296Z,99.90
2019-03-28T22:12:42.995Z,99.90
2019-03-28T22:15:12.209Z,99.90
2019-03-28T22:17:41.942Z,99.90
2019-03-28T22:20:10.876Z,99.90
2019-03-28T22:22:39.632Z,99.90
2019-03-28T22:25:08.723Z,99.90
2019-03-28T22:27:37.423Z,99.90
2019-03-28T22:30:07.869Z,99.90
2019-03-28T22:32:36.570Z,99.90
2019-03-28T22:35:06.918Z,99.90
2019-03-28T22:37:35.549Z,99.90
2019-03-28T22:40:11.478Z,99.90
2019-03-28T22:42:40.816Z,99.90
2019-03-28T22:45:10.143Z,99.90
2019-03-28T22:47:38.817Z,99.90
2019-03-28T22:50:07.851Z,99.90
2019-03-28T22:52:36.484Z,99.90
2019-03-28T22:55:08.086Z,99.90
2019-03-28T22:57:36.720Z,99.90
2019-03-28T23:00:08.244Z,99.90
2019-03-28T23:02:36.943Z,99.90
2019-03-28T23:05:07.545Z,99.90
2019-03-28T23:07:36.275Z,99.90
2019-03-28T23:10:09.043Z,99.90
2019-03-28T23:12:38.144Z,99.90
2019-03-28T23:15:08.355Z,99.90
2019-03-28T23:17:37.051Z,99.90
2019-03-28T23:20:09.367Z,99.90
2019-03-28T23:22:38.076Z,99.90
2019-03-28T23:25:07.391Z,99.90
2019-03-28T23:27:36.099Z,99.90
2019-03-28T23:30:09.358Z,99.90
2019-03-28T23:32:38.771Z,99.90
2019-03-28T23:35:07.699Z,99.90
2019-03-28T23:37:36.447Z,99.90
2019-03-28T23:40:09.580Z,99.90
2019-03-28T23:42:38.207Z,99.90
2019-03-28T23:45:11.517Z,99.90
2019-03-28T23:47:43.596Z,99.90
2019-03-28T23:50:12.431Z,99.90
2019-03-28T23:52:41.161Z,99.90
2019-03-28T23:55:10.039Z,99.90
2019-03-28T23:57:38.788Z,99.90
